createdAt,value
2024-05-09T00:01:04.346Z,19.65
2024-05-09T00:06:12.607Z,18.82
2024-05-09T00:11:18.041Z,19.17
2024-05-09T00:16:23.144Z,18.49
2024-05-09T00:21:46.010Z,18.80
2024-05-09T00:26:51.228Z,18.24
2024-05-09T00:31:56.513Z,18.75
2024-05-09T00:37:09.054Z,19.17
2024-05-09T00:42:14.747Z,18.58
2024-05-09T00:47:19.877Z,18.50
2024-05-09T00:52:28.053Z,19.22
2024-05-09T00:57:33.284Z,18.80
2024-05-09T01:02:39.315Z,18.75
2024-05-09T01:07:46.928Z,18.67
2024-05-09T01:12:52.050Z,18.32
2024-05-09T01:17:57.965Z,17.92
2024-05-09T01:23:11.158Z,18.27
2024-05-09T01:28:18.893Z,18.24
2024-05-09T01:33:24.829Z,18.19
2024-05-09T01:38:32.540Z,18.00
2024-05-09T01:43:37.523Z,17.88
2024-05-09T01:48:42.635Z,17.68
2024-05-09T01:53:50.669Z,17.56
2024-05-09T01:58:56.046Z,17.92
2024-05-09T02:04:01.265Z,18.06
2024-05-09T02:09:09.089Z,17.48
2024-05-09T02:14:14.287Z,17.88
2024-05-09T02:19:19.451Z,17.88
2024-05-09T02:24:27.343Z,17.88
2024-05-09T02:29:32.692Z,17.70
2024-05-09T02:34:37.852Z,17.75
2024-05-09T02:39:45.552Z,17.63
2024-05-09T02:44:50.667Z,17.48
2024-05-09T02:49:55.802Z,17.70
2024-05-09T02:55:03.398Z,17.31
2024-05-09T03:00:15.202Z,17.46
2024-05-09T03:05:24.284Z,17.39
2024-05-09T03:10:36.209Z,18.10
2024-05-09T03:28:19.410Z,17.25
2024-05-09T03:33:29.999Z,17.23
2024-05-09T03:38:44.294Z,17.23
2024-05-09T03:43:52.007Z,17.48
2024-05-09T03:48:57.120Z,17.75
2024-05-09T03:54:02.283Z,17.27
2024-05-09T03:59:09.923Z,18.39
2024-05-09T04:04:15.048Z,18.14
2024-05-09T04:09:20.143Z,18.05
2024-05-09T04:14:27.804Z,18.16
2024-05-09T04:19:33.561Z,18.38
2024-05-09T04:24:39.607Z,18.48
2024-05-09T04:29:48.312Z,18.21
2024-05-09T04:35:18.312Z,18.62
2024-05-09T04:40:30.796Z,18.42
2024-05-09T04:45:41.375Z,18.63
2024-05-09T04:50:46.349Z,19.06
2024-05-09T04:55:51.504Z,19.37
2024-05-09T05:00:59.270Z,19.71
2024-05-09T05:06:04.457Z,20.09
2024-05-09T05:11:09.680Z,20.62
2024-05-09T05:16:20.574Z,20.60
2024-05-09T05:21:26.482Z,20.46
2024-05-09T05:26:32.404Z,21.00
2024-05-09T06:15:14.201Z,23.53
2024-05-09T06:27:08.914Z,23.78
2024-05-09T06:32:20.715Z,24.20
2024-05-09T06:38:19.242Z,26.39
2024-05-09T06:44:36.983Z,26.21
2024-05-09T06:50:23.359Z,25.98
2024-05-09T06:55:32.788Z,26.63
2024-05-09T11:09:26.696Z,27.53
2024-05-09T11:34:33.132Z,28.61
2024-05-09T12:26:06.223Z,29.04
2024-05-09T12:38:29.282Z,28.88
2024-05-09T12:43:55.840Z,30.28
2024-05-09T12:50:01.853Z,29.60
2024-05-09T12:56:28.824Z,31.94
2024-05-09T13:01:50.379Z,31.93
2024-05-09T13:06:57.324Z,29.89
2024-05-09T13:12:12.971Z,32.57
2024-05-09T16:05:30.636Z,25.18
2024-05-09T16:44:50.349Z,25.48
2024-05-09T17:08:05.934Z,25.65
2024-05-09T17:13:47.976Z,25.98
2024-05-09T18:19:43.889Z,24.63
2024-05-09T19:08:42.211Z,23.44
2024-05-09T19:14:00.159Z,22.91
2024-05-09T19:49:27.196Z,23.10
2024-05-09T19:54:32.265Z,23.09
2024-05-09T19:59:37.384Z,23.26
2024-05-09T20:04:46.640Z,22.90
2024-05-09T20:09:58.765Z,22.90
2024-05-09T20:15:04.975Z,22.87
2024-05-09T20:20:24.656Z,22.90
2024-05-09T20:25:38.411Z,23.04
2024-05-09T20:30:44.763Z,23.20
2024-05-09T20:35:55.416Z,23.00
2024-05-09T20:41:03.268Z,22.98
2024-05-09T20:46:11.855Z,23.14
2024-05-09T20:51:19.641Z,22.94
2024-05-09T20:56:24.967Z,22.95
2024-05-09T21:01:30.042Z,23.00
2024-05-09T21:30:48.207Z,22.57
2024-05-09T21:35:53.502Z,22.20
2024-05-09T21:40:58.959Z,22.02
2024-05-09T21:46:07.235Z,22.14
2024-05-09T21:51:16.779Z,22.41
2024-05-09T21:56:21.814Z,21.99
2024-05-09T22:01:29.607Z,22.40
2024-05-09T22:06:34.711Z,22.46
2024-05-09T22:11:41.135Z,22.35
2024-05-09T22:16:48.793Z,22.37
2024-05-09T22:21:55.386Z,22.20
2024-05-09T22:27:00.505Z,22.28
2024-05-09T22:32:08.615Z,22.02
2024-05-09T22:37:13.560Z,22.60
2024-05-09T22:42:18.691Z,22.80
2024-05-09T22:47:26.529Z,22.98
2024-05-09T22:52:31.552Z,22.11
2024-05-09T22:57:36.662Z,21.67
2024-05-09T23:02:44.796Z,22.04
2024-05-09T23:07:49.957Z,22.01
2024-05-09T23:12:55.087Z,22.47
2024-05-09T23:18:03.034Z,22.18
2024-05-09T23:23:08.744Z,21.86
2024-05-09T23:28:14.682Z,22.08
2024-05-09T23:33:22.454Z,21.96
2024-05-09T23:38:27.514Z,22.20
2024-05-09T23:43:32.497Z,21.89
2024-05-09T23:48:40.369Z,21.85
2024-05-09T23:53:47.890Z,21.57
2024-05-09T23:58:52.971Z,21.31
